Terminal Aerodrome Forecast
Issued by NWS Birmingham, AL

Home | Current Version | Previous Version | Text Only | Print | Product List | Glossary On
Versions: 1 2 3 4 5 6 7 8 9 10 11 12 13
372
FTUS44 KBMX 161801 AAA
TAFBHM
TAF AMD
KBHM 161801Z 1618/1718 15008G16KT P6SM OVC090
     FM170500 15005KT P6SM OVC030
     FM170600 18008KT P6SM OVC010
     FM171200 19008KT P6SM OVC007=

USA.gov is the U.S. government's official web portal to all federal, state and local government web resources and services.